sensor_id;sensor_type;location;lat;lon;timestamp;P1;durP1;ratioP1;P2;durP2;ratioP2
6249;SDS011;3158;52.148;11.568;2024-03-02T00:00:59;35.20;;;16.95;;
6249;SDS011;3158;52.148;11.568;2024-03-02T00:05:59;44.85;;;18.77;;
6249;SDS011;3158;52.148;11.568;2024-03-02T00:11:00;40.90;;;17.70;;
6249;SDS011;3158;52.148;11.568;2024-03-02T00:16:00;36.00;;;17.70;;
6249;SDS011;3158;52.148;11.568;2024-03-02T00:21:00;42.25;;;17.10;;
6249;SDS011;3158;52.148;11.568;2024-03-02T00:26:01;49.70;;;18.67;;
6249;SDS011;3158;52.148;11.568;2024-03-02T00:31:03;43.08;;;18.92;;
6249;SDS011;3158;52.148;11.568;2024-03-02T00:36:04;36.17;;;16.85;;
6249;SDS011;3158;52.148;11.568;2024-03-02T00:41:05;40.95;;;18.80;;
6249;SDS011;3158;52.148;11.568;2024-03-02T00:46:07;40.83;;;18.00;;
6249;SDS011;3158;52.148;11.568;2024-03-02T00:51:07;41.08;;;16.98;;
6249;SDS011;3158;52.148;11.568;2024-03-02T00:56:09;37.30;;;17.65;;
6249;SDS011;3158;52.148;11.568;2024-03-02T01:01:10;37.20;;;16.65;;
6249;SDS011;3158;52.148;11.568;2024-03-02T01:06:10;43.05;;;18.02;;
6249;SDS011;3158;52.148;11.568;2024-03-02T01:11:11;40.05;;;17.73;;
6249;SDS011;3158;52.148;11.568;2024-03-02T01:16:11;40.90;;;17.92;;
6249;SDS011;3158;52.148;11.568;2024-03-02T01:21:11;35.77;;;16.87;;
6249;SDS011;3158;52.148;11.568;2024-03-02T01:26:11;40.92;;;17.23;;
6249;SDS011;3158;52.148;11.568;2024-03-02T01:31:12;40.55;;;17.13;;
6249;SDS011;3158;52.148;11.568;2024-03-02T01:36:13;44.20;;;17.95;;
6249;SDS011;3158;52.148;11.568;2024-03-02T01:41:14;42.58;;;18.77;;
6249;SDS011;3158;52.148;11.568;2024-03-02T01:46:14;41.08;;;17.83;;
6249;SDS011;3158;52.148;11.568;2024-03-02T01:51:14;39.20;;;18.13;;
6249;SDS011;3158;52.148;11.568;2024-03-02T01:56:14;50.20;;;18.10;;
6249;SDS011;3158;52.148;11.568;2024-03-02T02:01:15;40.90;;;18.08;;
6249;SDS011;3158;52.148;11.568;2024-03-02T02:06:16;47.40;;;19.23;;
6249;SDS011;3158;52.148;11.568;2024-03-02T02:11:17;37.15;;;17.80;;
6249;SDS011;3158;52.148;11.568;2024-03-02T02:16:17;36.28;;;16.95;;
6249;SDS011;3158;52.148;11.568;2024-03-02T02:21:17;36.70;;;17.80;;
6249;SDS011;3158;52.148;11.568;2024-03-02T02:26:17;44.72;;;18.80;;
6249;SDS011;3158;52.148;11.568;2024-03-02T02:31:18;44.57;;;19.43;;
6249;SDS011;3158;52.148;11.568;2024-03-02T02:36:18;45.60;;;19.27;;
6249;SDS011;3158;52.148;11.568;2024-03-02T02:41:18;41.75;;;19.48;;
6249;SDS011;3158;52.148;11.568;2024-03-02T02:46:18;43.40;;;18.77;;
6249;SDS011;3158;52.148;11.568;2024-03-02T02:51:19;42.30;;;19.75;;
6249;SDS011;3158;52.148;11.568;2024-03-02T02:56:19;47.90;;;19.92;;
6249;SDS011;3158;52.148;11.568;2024-03-02T03:01:19;41.63;;;18.20;;
6249;SDS011;3158;52.148;11.568;2024-03-02T03:06:20;39.58;;;18.17;;
6249;SDS011;3158;52.148;11.568;2024-03-02T03:11:20;47.63;;;19.10;;
6249;SDS011;3158;52.148;11.568;2024-03-02T03:16:22;38.80;;;17.77;;
6249;SDS011;3158;52.148;11.568;2024-03-02T03:21:22;42.42;;;18.70;;
6249;SDS011;3158;52.148;11.568;2024-03-02T03:26:23;45.42;;;19.65;;
6249;SDS011;3158;52.148;11.568;2024-03-02T03:31:24;46.80;;;19.30;;
6249;SDS011;3158;52.148;11.568;2024-03-02T03:36:24;43.75;;;18.38;;
6249;SDS011;3158;52.148;11.568;2024-03-02T03:41:24;36.80;;;18.15;;
6249;SDS011;3158;52.148;11.568;2024-03-02T03:46:24;45.20;;;19.63;;
6249;SDS011;3158;52.148;11.568;2024-03-02T03:51:25;41.53;;;18.25;;
6249;SDS011;3158;52.148;11.568;2024-03-02T03:56:25;35.05;;;16.15;;
6249;SDS011;3158;52.148;11.568;2024-03-02T04:01:25;36.00;;;17.83;;
6249;SDS011;3158;52.148;11.568;2024-03-02T04:06:25;37.60;;;18.63;;
6249;SDS011;3158;52.148;11.568;2024-03-02T04:11:26;40.05;;;17.77;;
6249;SDS011;3158;52.148;11.568;2024-03-02T04:16:26;37.97;;;18.17;;
6249;SDS011;3158;52.148;11.568;2024-03-02T04:21:26;38.78;;;16.95;;
6249;SDS011;3158;52.148;11.568;2024-03-02T04:26:26;40.47;;;19.08;;
6249;SDS011;3158;52.148;11.568;2024-03-02T04:31:27;38.85;;;17.40;;
6249;SDS011;3158;52.148;11.568;2024-03-02T04:36:27;34.60;;;16.90;;
6249;SDS011;3158;52.148;11.568;2024-03-02T04:41:27;34.58;;;17.17;;
6249;SDS011;3158;52.148;11.568;2024-03-02T04:46:27;29.88;;;16.05;;
6249;SDS011;3158;52.148;11.568;2024-03-02T04:51:28;32.40;;;15.77;;
6249;SDS011;3158;52.148;11.568;2024-03-02T04:56:29;35.88;;;16.42;;
6249;SDS011;3158;52.148;11.568;2024-03-02T05:01:49;33.83;;;16.15;;
6249;SDS011;3158;52.148;11.568;2024-03-02T05:06:50;31.27;;;16.80;;
6249;SDS011;3158;52.148;11.568;2024-03-02T05:11:52;34.42;;;17.10;;
6249;SDS011;3158;52.148;11.568;2024-03-02T05:17:11;37.92;;;17.15;;
6249;SDS011;3158;52.148;11.568;2024-03-02T05:22:11;32.78;;;15.85;;
6249;SDS011;3158;52.148;11.568;2024-03-02T05:27:12;33.08;;;16.67;;
6249;SDS011;3158;52.148;11.568;2024-03-02T05:32:12;40.58;;;17.77;;
6249;SDS011;3158;52.148;11.568;2024-03-02T05:37:12;37.37;;;18.33;;
6249;SDS011;3158;52.148;11.568;2024-03-02T05:42:12;32.10;;;15.68;;
6249;SDS011;3158;52.148;11.568;2024-03-02T05:47:13;33.05;;;16.00;;
6249;SDS011;3158;52.148;11.568;2024-03-02T05:52:13;30.70;;;16.02;;
6249;SDS011;3158;52.148;11.568;2024-03-02T05:57:13;35.95;;;17.13;;
6249;SDS011;3158;52.148;11.568;2024-03-02T06:02:17;39.92;;;17.45;;
6249;SDS011;3158;52.148;11.568;2024-03-02T06:07:17;36.33;;;15.77;;
6249;SDS011;3158;52.148;11.568;2024-03-02T06:12:17;39.80;;;17.45;;
6249;SDS011;3158;52.148;11.568;2024-03-02T06:17:18;38.40;;;17.00;;
6249;SDS011;3158;52.148;11.568;2024-03-02T06:22:19;39.15;;;18.17;;
6249;SDS011;3158;52.148;11.568;2024-03-02T06:27:19;36.35;;;16.67;;
6249;SDS011;3158;52.148;11.568;2024-03-02T06:32:19;39.63;;;17.58;;
6249;SDS011;3158;52.148;11.568;2024-03-02T06:37:20;38.72;;;18.55;;
6249;SDS011;3158;52.148;11.568;2024-03-02T06:42:20;40.83;;;17.98;;
6249;SDS011;3158;52.148;11.568;2024-03-02T06:47:21;36.55;;;17.90;;
6249;SDS011;3158;52.148;11.568;2024-03-02T06:52:21;45.53;;;19.92;;
6249;SDS011;3158;52.148;11.568;2024-03-02T06:57:21;42.33;;;18.42;;
6249;SDS011;3158;52.148;11.568;2024-03-02T07:02:21;42.88;;;18.55;;
6249;SDS011;3158;52.148;11.568;2024-03-02T07:07:23;39.70;;;18.77;;
6249;SDS011;3158;52.148;11.568;2024-03-02T07:12:23;39.10;;;17.38;;
6249;SDS011;3158;52.148;11.568;2024-03-02T07:17:23;46.92;;;18.55;;
6249;SDS011;3158;52.148;11.568;2024-03-02T07:22:23;43.72;;;18.65;;
6249;SDS011;3158;52.148;11.568;2024-03-02T07:27:24;41.65;;;18.48;;
6249;SDS011;3158;52.148;11.568;2024-03-02T07:32:24;46.17;;;19.67;;
6249;SDS011;3158;52.148;11.568;2024-03-02T07:37:24;43.53;;;18.80;;
6249;SDS011;3158;52.148;11.568;2024-03-02T07:42:24;41.35;;;19.08;;
6249;SDS011;3158;52.148;11.568;2024-03-02T07:47:25;46.83;;;19.13;;
6249;SDS011;3158;52.148;11.568;2024-03-02T07:52:25;42.05;;;19.13;;
6249;SDS011;3158;52.148;11.568;2024-03-02T07:57:25;39.90;;;18.13;;
6249;SDS011;3158;52.148;11.568;2024-03-02T08:02:25;41.15;;;19.02;;
6249;SDS011;3158;52.148;11.568;2024-03-02T08:07:26;39.10;;;18.77;;
6249;SDS011;3158;52.148;11.568;2024-03-02T08:12:26;40.13;;;17.83;;
6249;SDS011;3158;52.148;11.568;2024-03-02T08:17:26;35.78;;;19.17;;
6249;SDS011;3158;52.148;11.568;2024-03-02T08:22:26;36.72;;;18.98;;
6249;SDS011;3158;52.148;11.568;2024-03-02T08:27:27;35.35;;;18.13;;
6249;SDS011;3158;52.148;11.568;2024-03-02T08:32:27;35.88;;;17.17;;
6249;SDS011;3158;52.148;11.568;2024-03-02T08:37:27;32.95;;;16.90;;
6249;SDS011;3158;52.148;11.568;2024-03-02T08:42:27;28.80;;;15.55;;
6249;SDS011;3158;52.148;11.568;2024-03-02T08:47:28;36.53;;;17.20;;
6249;SDS011;3158;52.148;11.568;2024-03-02T08:52:28;28.63;;;15.30;;
6249;SDS011;3158;52.148;11.568;2024-03-02T08:57:28;32.17;;;15.02;;
6249;SDS011;3158;52.148;11.568;2024-03-02T09:02:28;24.73;;;13.57;;
6249;SDS011;3158;52.148;11.568;2024-03-02T09:07:29;27.08;;;14.32;;
6249;SDS011;3158;52.148;11.568;2024-03-02T09:12:29;32.83;;;14.38;;
6249;SDS011;3158;52.148;11.568;2024-03-02T09:17:29;29.23;;;15.13;;
6249;SDS011;3158;52.148;11.568;2024-03-02T09:22:30;28.85;;;14.80;;
6249;SDS011;3158;52.148;11.568;2024-03-02T09:27:30;31.08;;;14.48;;
6249;SDS011;3158;52.148;11.568;2024-03-02T09:32:30;25.00;;;12.77;;
6249;SDS011;3158;52.148;11.568;2024-03-02T09:37:30;25.10;;;13.35;;
6249;SDS011;3158;52.148;11.568;2024-03-02T09:42:31;21.35;;;11.82;;
6249;SDS011;3158;52.148;11.568;2024-03-02T09:47:32;22.60;;;11.55;;
6249;SDS011;3158;52.148;11.568;2024-03-02T09:52:32;22.73;;;11.88;;
6249;SDS011;3158;52.148;11.568;2024-03-02T09:57:33;20.83;;;12.48;;
6249;SDS011;3158;52.148;11.568;2024-03-02T10:02:33;20.77;;;11.80;;
6249;SDS011;3158;52.148;11.568;2024-03-02T10:07:33;20.40;;;11.05;;
6249;SDS011;3158;52.148;11.568;2024-03-02T10:12:33;26.58;;;12.02;;
6249;SDS011;3158;52.148;11.568;2024-03-02T10:17:34;18.55;;;11.55;;
6249;SDS011;3158;52.148;11.568;2024-03-02T10:22:34;19.27;;;11.93;;
6249;SDS011;3158;52.148;11.568;2024-03-02T10:27:34;21.63;;;11.52;;
6249;SDS011;3158;52.148;11.568;2024-03-02T10:32:35;19.07;;;12.13;;
6249;SDS011;3158;52.148;11.568;2024-03-02T10:37:35;19.42;;;11.32;;
6249;SDS011;3158;52.148;11.568;2024-03-02T10:42:35;21.00;;;12.13;;
6249;SDS011;3158;52.148;11.568;2024-03-02T10:47:37;18.70;;;11.30;;
6249;SDS011;3158;52.148;11.568;2024-03-02T10:52:37;18.67;;;11.82;;
6249;SDS011;3158;52.148;11.568;2024-03-02T10:57:42;16.40;;;10.65;;
6249;SDS011;3158;52.148;11.568;2024-03-02T11:02:52;18.23;;;10.90;;
6249;SDS011;3158;52.148;11.568;2024-03-02T11:08:02;19.02;;;11.38;;
6249;SDS011;3158;52.148;11.568;2024-03-02T11:13:05;17.75;;;10.80;;
6249;SDS011;3158;52.148;11.568;2024-03-02T11:18:09;12.38;;;9.32;;
6249;SDS011;3158;52.148;11.568;2024-03-02T11:23:09;16.80;;;9.38;;
6249;SDS011;3158;52.148;11.568;2024-03-02T11:28:10;17.15;;;10.70;;
6249;SDS011;3158;52.148;11.568;2024-03-02T11:33:10;16.27;;;10.53;;
6249;SDS011;3158;52.148;11.568;2024-03-02T11:38:10;15.77;;;10.32;;
6249;SDS011;3158;52.148;11.568;2024-03-02T11:43:11;18.50;;;10.67;;
6249;SDS011;3158;52.148;11.568;2024-03-02T11:48:12;18.83;;;11.15;;
6249;SDS011;3158;52.148;11.568;2024-03-02T11:53:13;18.67;;;10.45;;
6249;SDS011;3158;52.148;11.568;2024-03-02T11:58:17;14.73;;;9.13;;
6249;SDS011;3158;52.148;11.568;2024-03-02T12:03:24;17.70;;;10.73;;
6249;SDS011;3158;52.148;11.568;2024-03-02T12:08:25;19.35;;;10.82;;
6249;SDS011;3158;52.148;11.568;2024-03-02T12:13:26;17.95;;;10.05;;
6249;SDS011;3158;52.148;11.568;2024-03-02T12:18:26;16.70;;;10.95;;
6249;SDS011;3158;52.148;11.568;2024-03-02T12:23:26;15.48;;;10.27;;
6249;SDS011;3158;52.148;11.568;2024-03-02T12:28:27;17.15;;;10.70;;
6249;SDS011;3158;52.148;11.568;2024-03-02T12:33:27;25.35;;;11.50;;
6249;SDS011;3158;52.148;11.568;2024-03-02T12:38:29;17.58;;;10.98;;
6249;SDS011;3158;52.148;11.568;2024-03-02T12:43:30;18.50;;;10.37;;
6249;SDS011;3158;52.148;11.568;2024-03-02T12:48:30;17.58;;;10.27;;
6249;SDS011;3158;52.148;11.568;2024-03-02T12:53:31;13.73;;;9.23;;
6249;SDS011;3158;52.148;11.568;2024-03-02T12:58:38;13.30;;;9.10;;
6249;SDS011;3158;52.148;11.568;2024-03-02T13:03:38;11.70;;;8.27;;
6249;SDS011;3158;52.148;11.568;2024-03-02T13:08:39;13.63;;;9.00;;
6249;SDS011;3158;52.148;11.568;2024-03-02T13:13:39;14.07;;;8.00;;
6249;SDS011;3158;52.148;11.568;2024-03-02T13:18:40;12.60;;;8.57;;
6249;SDS011;3158;52.148;11.568;2024-03-02T13:23:40;11.50;;;7.07;;
6249;SDS011;3158;52.148;11.568;2024-03-02T13:28:40;11.25;;;7.95;;
6249;SDS011;3158;52.148;11.568;2024-03-02T13:33:41;12.48;;;7.85;;
6249;SDS011;3158;52.148;11.568;2024-03-02T13:38:41;13.75;;;8.60;;
6249;SDS011;3158;52.148;11.568;2024-03-02T13:43:42;9.75;;;7.88;;
6249;SDS011;3158;52.148;11.568;2024-03-02T13:48:45;9.52;;;7.40;;
6249;SDS011;3158;52.148;11.568;2024-03-02T13:53:45;7.43;;;6.60;;
6249;SDS011;3158;52.148;11.568;2024-03-02T13:58:45;9.75;;;6.80;;
6249;SDS011;3158;52.148;11.568;2024-03-02T14:03:46;10.15;;;7.55;;
6249;SDS011;3158;52.148;11.568;2024-03-02T14:08:46;11.23;;;7.30;;
6249;SDS011;3158;52.148;11.568;2024-03-02T14:13:48;11.45;;;8.27;;
6249;SDS011;3158;52.148;11.568;2024-03-02T14:18:53;10.40;;;7.68;;
6249;SDS011;3158;52.148;11.568;2024-03-02T14:23:54;9.82;;;7.32;;
6249;SDS011;3158;52.148;11.568;2024-03-02T14:28:54;10.60;;;8.27;;
6249;SDS011;3158;52.148;11.568;2024-03-02T14:33:55;13.32;;;8.05;;
6249;SDS011;3158;52.148;11.568;2024-03-02T14:38:55;13.13;;;7.75;;
6249;SDS011;3158;52.148;11.568;2024-03-02T14:43:55;9.97;;;7.33;;
6249;SDS011;3158;52.148;11.568;2024-03-02T14:48:56;7.82;;;6.22;;
6249;SDS011;3158;52.148;11.568;2024-03-02T14:53:56;10.95;;;6.10;;
6249;SDS011;3158;52.148;11.568;2024-03-02T14:58:56;11.27;;;6.75;;
6249;SDS011;3158;52.148;11.568;2024-03-02T15:03:56;10.10;;;7.25;;
6249;SDS011;3158;52.148;11.568;2024-03-02T15:08:57;10.48;;;7.18;;
6249;SDS011;3158;52.148;11.568;2024-03-02T15:13:57;12.82;;;7.88;;
6249;SDS011;3158;52.148;11.568;2024-03-02T15:18:58;9.63;;;6.72;;
6249;SDS011;3158;52.148;11.568;2024-03-02T15:23:58;8.15;;;6.22;;
6249;SDS011;3158;52.148;11.568;2024-03-02T15:28:59;8.18;;;6.60;;
6249;SDS011;3158;52.148;11.568;2024-03-02T15:33:59;7.57;;;5.47;;
6249;SDS011;3158;52.148;11.568;2024-03-02T15:39:00;9.23;;;6.22;;
6249;SDS011;3158;52.148;11.568;2024-03-02T15:44:00;10.85;;;5.60;;
6249;SDS011;3158;52.148;11.568;2024-03-02T15:49:01;6.63;;;5.20;;
6249;SDS011;3158;52.148;11.568;2024-03-02T15:54:01;5.70;;;4.95;;
6249;SDS011;3158;52.148;11.568;2024-03-02T15:59:01;7.85;;;4.78;;
6249;SDS011;3158;52.148;11.568;2024-03-02T16:04:02;5.55;;;5.03;;
6249;SDS011;3158;52.148;11.568;2024-03-02T16:09:02;6.07;;;5.00;;
6249;SDS011;3158;52.148;11.568;2024-03-02T16:14:04;5.80;;;4.50;;
6249;SDS011;3158;52.148;11.568;2024-03-02T16:19:05;5.28;;;4.55;;
6249;SDS011;3158;52.148;11.568;2024-03-02T16:24:05;4.50;;;4.07;;
6249;SDS011;3158;52.148;11.568;2024-03-02T16:29:05;3.70;;;3.40;;
6249;SDS011;3158;52.148;11.568;2024-03-02T16:34:06;5.47;;;4.20;;
6249;SDS011;3158;52.148;11.568;2024-03-02T16:39:06;5.50;;;4.15;;
6249;SDS011;3158;52.148;11.568;2024-03-02T16:44:08;6.93;;;4.75;;
6249;SDS011;3158;52.148;11.568;2024-03-02T16:49:08;6.88;;;4.63;;
6249;SDS011;3158;52.148;11.568;2024-03-02T16:54:09;13.82;;;7.85;;
6249;SDS011;3158;52.148;11.568;2024-03-02T16:59:09;10.60;;;7.32;;
6249;SDS011;3158;52.148;11.568;2024-03-02T17:04:10;24.30;;;12.00;;
6249;SDS011;3158;52.148;11.568;2024-03-02T17:09:10;15.35;;;8.73;;
6249;SDS011;3158;52.148;11.568;2024-03-02T17:14:11;10.68;;;7.50;;
6249;SDS011;3158;52.148;11.568;2024-03-02T17:19:11;9.70;;;6.78;;
6249;SDS011;3158;52.148;11.568;2024-03-02T17:24:12;9.50;;;7.15;;
6249;SDS011;3158;52.148;11.568;2024-03-02T17:29:12;11.48;;;6.85;;
6249;SDS011;3158;52.148;11.568;2024-03-02T17:34:12;13.95;;;8.63;;
6249;SDS011;3158;52.148;11.568;2024-03-02T17:39:12;13.13;;;7.67;;
6249;SDS011;3158;52.148;11.568;2024-03-02T17:44:13;9.30;;;6.38;;
6249;SDS011;3158;52.148;11.568;2024-03-02T17:49:13;7.90;;;5.65;;
6249;SDS011;3158;52.148;11.568;2024-03-02T17:54:13;9.00;;;5.97;;
6249;SDS011;3158;52.148;11.568;2024-03-02T17:59:14;10.25;;;5.85;;
6249;SDS011;3158;52.148;11.568;2024-03-02T18:04:14;9.67;;;6.13;;
6249;SDS011;3158;52.148;11.568;2024-03-02T18:09:14;12.75;;;7.15;;
6249;SDS011;3158;52.148;11.568;2024-03-02T18:14:14;14.35;;;8.00;;
6249;SDS011;3158;52.148;11.568;2024-03-02T18:19:15;14.48;;;8.50;;
6249;SDS011;3158;52.148;11.568;2024-03-02T18:24:15;9.57;;;7.15;;
6249;SDS011;3158;52.148;11.568;2024-03-02T18:29:17;21.48;;;11.57;;
6249;SDS011;3158;52.148;11.568;2024-03-02T18:34:17;26.87;;;16.27;;
6249;SDS011;3158;52.148;11.568;2024-03-02T18:39:18;39.13;;;23.08;;
6249;SDS011;3158;52.148;11.568;2024-03-02T18:44:18;25.73;;;15.80;;
6249;SDS011;3158;52.148;11.568;2024-03-02T18:49:19;35.47;;;19.88;;
6249;SDS011;3158;52.148;11.568;2024-03-02T18:54:20;15.48;;;9.85;;
6249;SDS011;3158;52.148;11.568;2024-03-02T18:59:20;13.63;;;9.10;;
6249;SDS011;3158;52.148;11.568;2024-03-02T19:04:20;13.13;;;9.13;;
6249;SDS011;3158;52.148;11.568;2024-03-02T19:09:21;14.45;;;8.10;;
6249;SDS011;3158;52.148;11.568;2024-03-02T19:14:21;17.03;;;11.17;;
6249;SDS011;3158;52.148;11.568;2024-03-02T19:19:21;21.05;;;12.10;;
6249;SDS011;3158;52.148;11.568;2024-03-02T19:24:21;15.63;;;11.30;;
6249;SDS011;3158;52.148;11.568;2024-03-02T19:29:22;11.18;;;7.35;;
6249;SDS011;3158;52.148;11.568;2024-03-02T19:34:28;16.77;;;10.43;;
6249;SDS011;3158;52.148;11.568;2024-03-02T19:39:29;16.63;;;10.17;;
6249;SDS011;3158;52.148;11.568;2024-03-02T19:44:30;21.60;;;11.57;;
6249;SDS011;3158;52.148;11.568;2024-03-02T19:49:32;19.85;;;11.43;;
6249;SDS011;3158;52.148;11.568;2024-03-02T19:54:33;17.80;;;10.67;;
6249;SDS011;3158;52.148;11.568;2024-03-02T19:59:33;15.85;;;8.95;;
6249;SDS011;3158;52.148;11.568;2024-03-02T20:04:33;15.57;;;9.10;;
6249;SDS011;3158;52.148;11.568;2024-03-02T20:09:34;19.63;;;11.10;;
6249;SDS011;3158;52.148;11.568;2024-03-02T20:14:34;17.63;;;9.50;;
6249;SDS011;3158;52.148;11.568;2024-03-02T20:19:38;21.92;;;12.30;;
6249;SDS011;3158;52.148;11.568;2024-03-02T20:24:38;18.20;;;11.48;;
6249;SDS011;3158;52.148;11.568;2024-03-02T20:29:38;14.93;;;10.23;;
6249;SDS011;3158;52.148;11.568;2024-03-02T20:34:39;24.20;;;13.63;;
6249;SDS011;3158;52.148;11.568;2024-03-02T20:39:39;30.05;;;17.27;;
6249;SDS011;3158;52.148;11.568;2024-03-02T20:44:39;23.60;;;13.55;;
6249;SDS011;3158;52.148;11.568;2024-03-02T20:49:40;22.55;;;11.80;;
6249;SDS011;3158;52.148;11.568;2024-03-02T20:54:42;24.75;;;11.98;;
6249;SDS011;3158;52.148;11.568;2024-03-02T20:59:42;21.85;;;11.50;;
6249;SDS011;3158;52.148;11.568;2024-03-02T21:04:42;22.42;;;9.75;;
6249;SDS011;3158;52.148;11.568;2024-03-02T21:09:45;23.70;;;11.93;;
6249;SDS011;3158;52.148;11.568;2024-03-02T21:14:45;20.52;;;10.40;;
6249;SDS011;3158;52.148;11.568;2024-03-02T21:19:45;19.17;;;9.75;;
6249;SDS011;3158;52.148;11.568;2024-03-02T21:24:47;16.90;;;9.75;;
6249;SDS011;3158;52.148;11.568;2024-03-02T21:29:47;25.10;;;12.25;;
6249;SDS011;3158;52.148;11.568;2024-03-02T21:34:48;17.60;;;10.35;;
6249;SDS011;3158;52.148;11.568;2024-03-02T21:39:49;22.42;;;11.18;;
6249;SDS011;3158;52.148;11.568;2024-03-02T21:44:49;21.77;;;10.60;;
6249;SDS011;3158;52.148;11.568;2024-03-02T21:49:49;15.20;;;10.52;;
6249;SDS011;3158;52.148;11.568;2024-03-02T21:54:49;17.13;;;9.63;;
6249;SDS011;3158;52.148;11.568;2024-03-02T21:59:50;19.35;;;10.52;;
6249;SDS011;3158;52.148;11.568;2024-03-02T22:04:50;25.15;;;11.65;;
6249;SDS011;3158;52.148;11.568;2024-03-02T22:09:50;22.85;;;10.68;;
6249;SDS011;3158;52.148;11.568;2024-03-02T22:14:51;23.70;;;12.33;;
6249;SDS011;3158;52.148;11.568;2024-03-02T22:19:51;19.95;;;12.02;;
6249;SDS011;3158;52.148;11.568;2024-03-02T22:24:51;22.00;;;12.13;;
6249;SDS011;3158;52.148;11.568;2024-03-02T22:29:52;23.38;;;12.05;;
6249;SDS011;3158;52.148;11.568;2024-03-02T22:34:52;25.02;;;14.00;;
6249;SDS011;3158;52.148;11.568;2024-03-02T22:39:52;23.58;;;11.93;;
6249;SDS011;3158;52.148;11.568;2024-03-02T22:44:52;21.75;;;12.20;;
6249;SDS011;3158;52.148;11.568;2024-03-02T22:49:53;20.75;;;10.80;;
6249;SDS011;3158;52.148;11.568;2024-03-02T22:54:55;23.42;;;11.80;;
6249;SDS011;3158;52.148;11.568;2024-03-02T22:59:56;18.98;;;11.00;;
6249;SDS011;3158;52.148;11.568;2024-03-02T23:04:56;21.90;;;10.18;;
6249;SDS011;3158;52.148;11.568;2024-03-02T23:09:56;19.98;;;10.57;;
6249;SDS011;3158;52.148;11.568;2024-03-02T23:14:57;17.33;;;10.63;;
6249;SDS011;3158;52.148;11.568;2024-03-02T23:19:57;25.85;;;12.98;;
6249;SDS011;3158;52.148;11.568;2024-03-02T23:24:57;23.87;;;11.73;;
6249;SDS011;3158;52.148;11.568;2024-03-02T23:29:57;21.87;;;11.40;;
6249;SDS011;3158;52.148;11.568;2024-03-02T23:34:58;26.63;;;11.07;;
6249;SDS011;3158;52.148;11.568;2024-03-02T23:39:58;22.58;;;11.15;;
6249;SDS011;3158;52.148;11.568;2024-03-02T23:45:18;19.70;;;10.73;;
6249;SDS011;3158;52.148;11.568;2024-03-02T23:50:19;20.38;;;10.68;;
6249;SDS011;3158;52.148;11.568;2024-03-02T23:55:19;18.25;;;10.23;;
